createdAt,value
2022-10-14T00:01:25.668Z,2.27
2022-10-14T00:03:55.182Z,2.45
2022-10-14T00:06:26.128Z,2.35
2022-10-14T00:08:55.264Z,2.20
2022-10-14T00:11:26.217Z,2.00
2022-10-14T00:14:04.513Z,1.97
2022-10-14T00:16:35.791Z,2.33
2022-10-14T00:19:05.343Z,2.22
2022-10-14T00:21:35.304Z,2.38
2022-10-14T00:24:03.560Z,1.98
2022-10-14T00:26:35.078Z,1.83
2022-10-14T00:29:05.092Z,2.08
2022-10-14T00:31:33.862Z,1.95
2022-10-14T00:34:02.554Z,2.10
2022-10-14T00:36:30.573Z,2.47
2022-10-14T00:38:58.479Z,1.90
2022-10-14T00:41:29.928Z,2.35
2022-10-14T00:44:08.886Z,2.40
2022-10-14T00:46:40.051Z,2.13
2022-10-14T00:49:40.024Z,2.30
2022-10-14T00:52:14.272Z,2.10
2022-10-14T00:54:45.866Z,2.13
2022-10-14T00:57:14.992Z,2.10
2022-10-14T00:59:42.978Z,2.40
2022-10-14T01:02:11.079Z,1.80
2022-10-14T01:04:43.734Z,2.13
2022-10-14T01:07:50.206Z,2.10
2022-10-14T01:10:26.270Z,1.70
2022-10-14T01:13:03.361Z,1.50
2022-10-14T01:15:37.415Z,1.67
2022-10-14T01:18:32.654Z,1.73
2022-10-14T01:21:25.990Z,1.60
2022-10-14T01:24:27.486Z,1.88
2022-10-14T01:27:35.628Z,1.50
2022-10-14T01:30:23.001Z,1.42
2022-10-14T01:33:05.928Z,1.60
2022-10-14T01:35:47.279Z,1.70
2022-10-14T01:38:44.227Z,1.70
2022-10-14T01:41:30.947Z,1.80
2022-10-14T01:44:06.310Z,1.55
2022-10-14T01:46:37.899Z,1.50
2022-10-14T01:49:13.640Z,1.88
2022-10-14T01:51:55.196Z,1.67
2022-10-14T01:54:36.271Z,1.60
2022-10-14T01:57:11.905Z,1.58
2022-10-14T01:59:42.365Z,1.40
2022-10-14T02:02:13.905Z,1.67
2022-10-14T02:04:42.287Z,1.38
2022-10-14T02:07:23.737Z,1.30
2022-10-14T02:10:30.475Z,1.70
2022-10-14T02:13:28.316Z,1.50
2022-10-14T02:16:04.988Z,1.88
2022-10-14T02:18:56.885Z,1.90
2022-10-14T02:21:30.954Z,1.70
2022-10-14T02:24:22.205Z,1.67
2022-10-14T02:26:54.420Z,1.73
2022-10-14T02:29:24.732Z,1.50
2022-10-14T02:31:56.363Z,1.58
2022-10-14T02:34:26.190Z,1.33
2022-10-14T02:36:55.554Z,1.40
2022-10-14T02:39:42.673Z,1.50
2022-10-14T02:42:10.638Z,1.40
2022-10-14T02:44:38.530Z,1.50
2022-10-14T02:47:06.598Z,1.20
2022-10-14T02:49:34.272Z,1.33
2022-10-14T02:52:02.270Z,1.23
2022-10-14T02:54:30.111Z,1.33
2022-10-14T02:56:58.820Z,1.50
2022-10-14T02:59:26.814Z,1.35
2022-10-14T03:01:56.401Z,1.65
2022-10-14T03:04:24.743Z,1.20
2022-10-14T03:06:54.451Z,1.42
2022-10-14T03:09:24.262Z,1.80
2022-10-14T03:11:52.429Z,2.00
2022-10-14T03:14:22.120Z,2.20
2022-10-14T03:16:50.625Z,2.30
2022-10-14T03:19:23.133Z,2.50
2022-10-14T03:21:54.665Z,2.20
2022-10-14T03:24:23.257Z,2.30
2022-10-14T03:27:08.776Z,2.10
2022-10-14T03:29:37.341Z,2.20
2022-10-14T03:32:14.696Z,1.92
2022-10-14T03:35:14.784Z,2.00
2022-10-14T03:37:46.144Z,2.08
2022-10-14T03:40:17.091Z,1.95
2022-10-14T03:42:45.458Z,2.17
2022-10-14T03:45:13.682Z,1.80
2022-10-14T03:47:42.420Z,1.90
2022-10-14T03:50:10.983Z,1.80
2022-10-14T03:52:46.755Z,2.00
2022-10-14T03:55:26.841Z,1.90
2022-10-14T03:57:56.725Z,1.77
2022-10-14T04:00:24.838Z,1.90
2022-10-14T04:03:06.105Z,2.40
2022-10-14T04:05:41.830Z,2.10
2022-10-14T04:08:15.364Z,2.00
2022-10-14T04:10:57.220Z,1.80
2022-10-14T04:13:26.513Z,2.05
2022-10-14T04:15:54.916Z,1.80
2022-10-14T04:18:36.676Z,1.95
2022-10-14T04:21:08.417Z,2.00
2022-10-14T04:23:37.392Z,2.00
2022-10-14T04:26:14.730Z,1.90
2022-10-14T04:28:46.356Z,1.75
2022-10-14T04:31:23.014Z,1.80
2022-10-14T04:33:57.339Z,1.90
2022-10-14T04:36:31.796Z,2.00
2022-10-14T04:39:02.141Z,1.90
2022-10-14T04:41:30.170Z,1.90
2022-10-14T04:44:01.332Z,1.77
2022-10-14T04:46:46.572Z,2.00
2022-10-14T04:49:16.790Z,1.88
2022-10-14T04:51:54.861Z,1.90
2022-10-14T04:54:43.176Z,1.88
2022-10-14T04:57:11.427Z,1.80
2022-10-14T04:59:40.365Z,1.40
2022-10-14T05:02:16.622Z,1.63
2022-10-14T05:04:57.131Z,1.67
2022-10-14T05:07:27.235Z,1.70
2022-10-14T05:10:05.101Z,1.90
2022-10-14T05:12:40.862Z,1.80
2022-10-14T05:15:11.481Z,1.90
2022-10-14T05:17:58.211Z,1.95
2022-10-14T05:20:39.117Z,2.20
2022-10-14T05:23:10.391Z,2.20
2022-10-14T05:25:38.723Z,2.70
2022-10-14T05:28:06.710Z,2.08
2022-10-14T05:30:35.555Z,2.17
2022-10-14T05:33:07.893Z,2.17
2022-10-14T05:35:58.125Z,1.92
2022-10-14T05:38:28.426Z,1.80
2022-10-14T05:40:58.168Z,2.22
2022-10-14T05:43:31.752Z,2.00
2022-10-14T05:46:01.319Z,1.90
2022-10-14T05:48:32.946Z,1.95
2022-10-14T05:51:04.577Z,1.97
2022-10-14T05:53:36.357Z,1.98
2022-10-14T05:56:10.695Z,1.90
2022-10-14T05:58:41.540Z,1.55
2022-10-14T06:01:11.527Z,1.67
2022-10-14T06:03:42.201Z,1.80
2022-10-14T06:06:14.830Z,1.90
2022-10-14T06:08:43.690Z,1.95
2022-10-14T06:11:12.750Z,1.90
2022-10-14T06:13:40.836Z,2.00
2022-10-14T06:16:11.408Z,2.13
2022-10-14T06:18:39.730Z,2.00
2022-10-14T06:21:08.313Z,2.25
2022-10-14T06:23:36.476Z,2.03
2022-10-14T06:26:10.085Z,2.03
2022-10-14T06:28:39.333Z,2.13
2022-10-14T06:31:07.756Z,1.73
2022-10-14T06:33:36.022Z,1.85
2022-10-14T06:36:05.858Z,1.85
2022-10-14T06:38:36.978Z,1.90
2022-10-14T06:41:05.188Z,1.70
2022-10-14T06:43:33.257Z,1.63
2022-10-14T06:46:03.664Z,1.65
2022-10-14T06:48:31.731Z,1.80
2022-10-14T06:51:00.546Z,2.30
2022-10-14T06:53:29.888Z,3.10
2022-10-14T06:56:02.474Z,3.05
2022-10-14T06:58:31.589Z,2.88
2022-10-14T07:01:09.005Z,2.90
2022-10-14T07:03:39.066Z,2.85
2022-10-14T07:06:08.855Z,2.90
2022-10-14T07:08:37.195Z,3.30
2022-10-14T07:11:06.439Z,3.10
2022-10-14T07:13:35.072Z,2.60
2022-10-14T07:16:03.711Z,2.70
2022-10-14T07:18:34.814Z,2.40
2022-10-14T07:21:05.068Z,2.30
2022-10-14T07:23:33.232Z,1.98
2022-10-14T07:26:01.748Z,2.15
2022-10-14T07:28:29.964Z,2.13
2022-10-14T07:31:03.233Z,1.60
2022-10-14T07:33:31.268Z,2.00
2022-10-14T07:36:16.099Z,1.92
2022-10-14T07:38:46.801Z,1.73
2022-10-14T07:41:18.671Z,1.92
2022-10-14T07:43:48.615Z,1.77
2022-10-14T07:46:29.474Z,1.92
2022-10-14T07:48:59.167Z,1.80
2022-10-14T07:51:28.376Z,1.70
2022-10-14T07:53:58.797Z,1.92
2022-10-14T07:56:27.496Z,1.70
2022-10-14T07:58:56.360Z,1.95
2022-10-14T08:01:24.990Z,1.40
2022-10-14T08:03:53.062Z,1.55
2022-10-14T08:06:21.363Z,1.80
2022-10-14T08:08:49.892Z,1.90
2022-10-14T08:11:24.069Z,1.73
2022-10-14T08:13:53.188Z,1.77
2022-10-14T08:16:24.026Z,1.90
2022-10-14T08:18:53.365Z,1.60
2022-10-14T08:21:21.887Z,1.80
2022-10-14T08:23:50.005Z,1.83
2022-10-14T08:26:38.653Z,1.83
2022-10-14T08:29:10.913Z,1.92
2022-10-14T08:31:39.083Z,1.60
2022-10-14T08:34:07.114Z,1.73
2022-10-14T08:36:35.204Z,1.80
2022-10-14T08:39:03.357Z,1.60
2022-10-14T08:41:31.237Z,1.70
2022-10-14T08:44:17.706Z,1.52
2022-10-14T08:46:55.825Z,1.73
2022-10-14T08:49:54.261Z,1.70
2022-10-14T08:52:37.824Z,1.70
2022-10-14T08:55:27.681Z,1.67
2022-10-14T08:58:08.961Z,1.83
2022-10-14T09:00:43.410Z,2.07
2022-10-14T09:03:34.513Z,2.00
2022-10-14T09:06:11.251Z,2.13
2022-10-14T09:08:44.415Z,2.15
2022-10-14T09:11:19.753Z,2.10
2022-10-14T09:14:02.552Z,2.00
2022-10-14T09:16:37.806Z,2.00
2022-10-14T09:19:29.278Z,1.80
2022-10-14T09:21:59.274Z,1.80
2022-10-14T09:24:36.000Z,2.03
2022-10-14T09:27:16.802Z,1.77
2022-10-14T09:29:54.606Z,2.30
2022-10-14T09:32:36.000Z,1.88
2022-10-14T09:35:05.031Z,2.08
2022-10-14T09:37:34.826Z,2.10
2022-10-14T09:40:05.316Z,1.90
2022-10-14T09:42:45.100Z,2.10
2022-10-14T09:45:16.002Z,2.20
2022-10-14T09:48:14.743Z,2.13
2022-10-14T09:50:48.982Z,2.05
2022-10-14T09:53:16.937Z,2.20
2022-10-14T09:55:53.139Z,2.30
2022-10-14T09:58:33.102Z,2.17
2022-10-14T10:01:05.097Z,2.40
2022-10-14T10:03:36.051Z,2.22
2022-10-14T10:06:08.046Z,2.60
2022-10-14T10:08:42.567Z,2.53
2022-10-14T10:11:14.457Z,2.28
2022-10-14T10:13:47.489Z,4.25
2022-10-14T10:16:33.129Z,2.60
2022-10-14T10:19:29.949Z,2.90
2022-10-14T10:22:27.066Z,3.30
2022-10-14T10:25:03.856Z,2.90
2022-10-14T10:27:38.135Z,2.40
2022-10-14T10:30:28.326Z,2.60
2022-10-14T10:33:17.922Z,2.60
2022-10-14T10:36:30.709Z,2.70
2022-10-14T10:39:21.139Z,3.10
2022-10-14T10:41:58.857Z,3.00
2022-10-14T10:44:40.701Z,2.95
2022-10-14T10:47:24.932Z,3.20
2022-10-14T10:50:23.831Z,3.17
2022-10-14T10:53:09.163Z,3.10
2022-10-14T10:58:28.163Z,3.22
2022-10-14T11:01:09.491Z,3.63
2022-10-14T11:04:01.529Z,3.40
2022-10-14T11:07:27.969Z,3.58
2022-10-14T11:10:33.740Z,3.40
2022-10-14T11:13:39.757Z,3.58
2022-10-14T11:16:30.624Z,3.73
2022-10-14T11:19:16.880Z,3.85
2022-10-14T11:22:30.109Z,3.55
2022-10-14T11:25:18.249Z,3.60
2022-10-14T11:31:02.843Z,3.90
2022-10-14T11:33:40.757Z,3.50
2022-10-14T11:36:20.917Z,3.90
2022-10-14T11:39:02.856Z,3.78
2022-10-14T11:41:51.494Z,3.92
2022-10-14T11:44:54.631Z,3.50
2022-10-14T11:47:33.272Z,3.55
2022-10-14T11:50:21.075Z,3.67
2022-10-14T11:53:13.922Z,3.50
2022-10-14T11:55:46.637Z,3.60
2022-10-14T11:58:23.762Z,3.60
2022-10-14T12:00:55.267Z,3.33
2022-10-14T12:03:47.123Z,3.47
2022-10-14T12:06:18.215Z,3.72
2022-10-14T12:09:00.377Z,3.55
2022-10-14T12:11:36.586Z,3.80
2022-10-14T12:14:34.985Z,4.30
2022-10-14T12:17:14.722Z,3.08
2022-10-14T12:19:45.859Z,12.43
2022-10-14T12:22:23.507Z,3.63
2022-10-14T12:24:55.322Z,3.47
2022-10-14T12:27:27.427Z,4.65
2022-10-14T12:29:59.293Z,10.10
2022-10-14T12:32:30.574Z,14.35
2022-10-14T12:35:03.002Z,5.45
2022-10-14T12:37:38.334Z,3.43
2022-10-14T12:40:07.144Z,18.63
2022-10-14T12:42:59.267Z,4.90
2022-10-14T12:45:29.723Z,3.42
2022-10-14T12:48:16.259Z,4.10
2022-10-14T12:50:47.202Z,25.97
2022-10-14T12:53:24.823Z,5.32
2022-10-14T12:55:54.741Z,16.10
2022-10-14T12:58:33.037Z,17.83
2022-10-14T13:01:18.362Z,4.20
2022-10-14T13:06:40.878Z,3.60
2022-10-14T13:09:17.427Z,3.60
2022-10-14T13:11:57.383Z,4.50
2022-10-14T13:14:31.712Z,3.50
2022-10-14T13:17:02.421Z,6.83
2022-10-14T13:19:33.181Z,6.85
2022-10-14T13:22:28.579Z,6.65
2022-10-14T13:25:16.323Z,21.80
2022-10-14T13:27:58.202Z,9.80
2022-10-14T13:31:08.000Z,24.00
2022-10-14T13:33:45.436Z,6.25
2022-10-14T13:36:30.828Z,6.00
2022-10-14T13:39:01.835Z,3.83
2022-10-14T13:41:31.697Z,3.60
2022-10-14T13:44:01.631Z,4.13
2022-10-14T13:46:43.466Z,4.00
2022-10-14T13:49:34.073Z,4.57
2022-10-14T13:52:09.453Z,4.05
2022-10-14T13:54:39.631Z,4.25
2022-10-14T14:00:44.924Z,4.10
2022-10-14T14:03:45.828Z,4.22
2022-10-14T14:06:23.162Z,4.05
2022-10-14T14:09:02.933Z,4.03
2022-10-14T14:11:35.260Z,4.07
2022-10-14T14:14:07.299Z,4.28
2022-10-14T14:16:41.303Z,5.13
2022-10-14T14:19:20.328Z,8.82
2022-10-14T14:21:48.870Z,8.40
2022-10-14T14:24:26.541Z,4.93
2022-10-14T14:26:56.439Z,6.85
2022-10-14T14:29:31.193Z,6.03
2022-10-14T14:32:06.545Z,4.57
2022-10-14T14:34:39.500Z,4.35
2022-10-14T14:40:31.728Z,3.90
2022-10-14T14:43:03.052Z,4.20
2022-10-14T14:45:37.673Z,4.55
2022-10-14T14:48:08.444Z,4.53
2022-10-14T14:50:44.953Z,4.53
2022-10-14T14:53:22.871Z,4.32
2022-10-14T14:55:56.646Z,4.18
2022-10-14T14:58:34.441Z,4.40
2022-10-14T15:01:04.807Z,4.38
2022-10-14T15:03:35.217Z,4.57
2022-10-14T15:06:06.045Z,4.10
2022-10-14T15:08:40.310Z,4.20
2022-10-14T15:11:09.646Z,4.68
2022-10-14T15:13:40.805Z,4.85
2022-10-14T15:16:09.654Z,4.57
2022-10-14T15:18:41.671Z,4.68
2022-10-14T15:21:12.434Z,4.68
2022-10-14T15:23:46.548Z,4.63
2022-10-14T15:26:34.369Z,4.20
2022-10-14T15:32:15.775Z,4.30
2022-10-14T15:34:45.825Z,4.30
2022-10-14T15:37:16.491Z,3.85
2022-10-14T15:39:46.387Z,4.00
2022-10-14T15:42:16.112Z,4.57
2022-10-14T15:44:44.533Z,4.47
2022-10-14T15:47:21.344Z,4.50
2022-10-14T15:49:50.304Z,4.53
2022-10-14T15:52:20.524Z,5.00
2022-10-14T15:54:52.273Z,5.90
2022-10-14T15:57:20.843Z,5.03
2022-10-14T15:59:53.193Z,8.15
2022-10-14T16:02:33.597Z,10.88
2022-10-14T16:07:51.563Z,12.67
2022-10-14T16:13:22.222Z,9.00
2022-10-14T16:15:58.871Z,7.50
2022-10-14T16:18:30.458Z,5.90
2022-10-14T16:20:58.948Z,6.40
2022-10-14T16:23:29.579Z,8.98
2022-10-14T16:25:59.636Z,8.43
2022-10-14T16:28:27.703Z,6.45
2022-10-14T16:30:55.960Z,6.72
2022-10-14T16:33:24.524Z,6.40
2022-10-14T16:35:55.606Z,6.72
2022-10-14T16:38:25.064Z,6.85
2022-10-14T16:41:01.416Z,6.97
2022-10-14T16:43:30.061Z,7.40
2022-10-14T16:46:00.197Z,6.67
2022-10-14T16:48:29.864Z,7.00
2022-10-14T16:50:57.894Z,6.45
2022-10-14T16:53:42.302Z,6.70
2022-10-14T16:56:36.220Z,6.50
2022-10-14T16:59:05.962Z,6.70
2022-10-14T17:01:34.388Z,7.35
2022-10-14T17:04:03.240Z,7.57
2022-10-14T17:06:31.611Z,7.13
2022-10-14T17:08:59.866Z,6.80
2022-10-14T17:11:29.896Z,6.30
2022-10-14T17:14:00.947Z,6.47
2022-10-14T17:16:29.418Z,6.55
2022-10-14T17:18:59.229Z,7.63
2022-10-14T17:21:29.921Z,7.43
2022-10-14T17:24:04.505Z,8.57
2022-10-14T17:26:35.158Z,9.43
2022-10-14T17:29:03.317Z,9.55
2022-10-14T17:31:31.488Z,9.68
2022-10-14T17:34:00.533Z,9.52
2022-10-14T17:36:31.112Z,9.60
2022-10-14T17:39:00.905Z,8.75
2022-10-14T17:41:31.039Z,8.13
2022-10-14T17:44:01.933Z,8.32
2022-10-14T17:46:31.890Z,8.20
2022-10-14T17:49:02.179Z,9.50
2022-10-14T17:51:32.336Z,8.95
2022-10-14T17:54:03.304Z,9.32
2022-10-14T17:56:33.960Z,8.90
2022-10-14T17:59:05.300Z,9.25
2022-10-14T18:02:04.669Z,8.37
2022-10-14T18:04:23.694Z,8.90
2022-10-14T18:06:53.239Z,8.70
2022-10-14T18:09:21.802Z,8.02
2022-10-14T18:12:09.595Z,7.70
2022-10-14T18:14:42.740Z,7.40
2022-10-14T18:17:12.979Z,7.20
2022-10-14T18:19:42.307Z,7.28
2022-10-14T18:22:11.748Z,7.00
2022-10-14T18:24:40.308Z,7.50
2022-10-14T18:27:11.960Z,7.90
2022-10-14T18:29:40.564Z,7.68
2022-10-14T18:32:12.032Z,7.40
2022-10-14T18:34:43.417Z,7.60
2022-10-14T18:37:11.897Z,7.50
2022-10-14T18:39:46.308Z,7.10
2022-10-14T18:42:17.162Z,8.02
2022-10-14T18:44:49.167Z,7.47
2022-10-14T18:47:17.419Z,7.35
2022-10-14T18:49:47.417Z,7.57
2022-10-14T18:52:15.671Z,7.30
2022-10-14T18:54:44.110Z,8.35
2022-10-14T18:57:15.888Z,8.10
2022-10-14T18:59:47.775Z,7.82
2022-10-14T19:02:16.114Z,7.97
2022-10-14T19:04:44.083Z,7.20
2022-10-14T19:07:12.403Z,6.88
2022-10-14T19:09:40.341Z,7.30
2022-10-14T19:12:28.840Z,7.57
2022-10-14T19:14:58.023Z,8.35
2022-10-14T19:17:26.416Z,9.37
2022-10-14T19:19:54.269Z,8.60
2022-10-14T19:22:23.313Z,7.78
2022-10-14T19:24:51.304Z,7.90
2022-10-14T19:27:20.050Z,8.30
2022-10-14T19:29:48.266Z,8.83
2022-10-14T19:32:16.303Z,9.77
2022-10-14T19:34:47.267Z,9.25
2022-10-14T19:37:16.086Z,9.52
2022-10-14T19:39:43.975Z,8.73
2022-10-14T19:42:12.152Z,9.50
2022-10-14T19:44:40.231Z,10.50
2022-10-14T19:47:08.406Z,10.38
2022-10-14T19:49:36.462Z,9.95
2022-10-14T19:52:07.433Z,9.60
2022-10-14T19:54:35.774Z,8.30
2022-10-14T19:57:03.692Z,9.05
2022-10-14T19:59:31.989Z,8.27
2022-10-14T20:01:59.982Z,8.43
2022-10-14T20:04:28.254Z,7.53
2022-10-14T20:06:56.476Z,7.17
2022-10-14T20:09:24.737Z,5.95
2022-10-14T20:11:53.529Z,5.95
2022-10-14T20:14:21.789Z,5.60
2022-10-14T20:16:53.568Z,6.50
2022-10-14T20:19:24.286Z,6.00
2022-10-14T20:21:52.203Z,5.95
2022-10-14T20:24:20.227Z,5.85
2022-10-14T20:26:48.229Z,6.20
2022-10-14T20:29:16.491Z,6.20
2022-10-14T20:31:44.409Z,6.30
2022-10-14T20:34:12.646Z,6.22
2022-10-14T20:36:40.520Z,6.10
2022-10-14T20:39:09.037Z,5.55
2022-10-14T20:41:40.006Z,6.10
2022-10-14T20:44:11.088Z,6.17
2022-10-14T20:46:39.359Z,6.03
2022-10-14T20:49:07.388Z,6.05
2022-10-14T20:51:36.304Z,6.28
2022-10-14T20:54:08.360Z,6.65
2022-10-14T20:56:38.683Z,6.10
2022-10-14T20:59:08.832Z,6.35
2022-10-14T21:01:40.754Z,6.50
2022-10-14T21:04:09.461Z,6.60
2022-10-14T21:06:39.165Z,6.85
2022-10-14T21:09:08.553Z,6.30
2022-10-14T21:11:36.845Z,6.63
2022-10-14T21:14:05.225Z,6.75
2022-10-14T21:16:35.389Z,6.78
2022-10-14T21:19:09.109Z,7.10
2022-10-14T21:21:41.167Z,6.67
2022-10-14T21:24:12.155Z,6.50
2022-10-14T21:26:40.244Z,6.07
2022-10-14T21:29:08.134Z,6.50
2022-10-14T21:31:36.678Z,6.45
2022-10-14T21:34:06.664Z,6.30
2022-10-14T21:36:37.302Z,6.03
2022-10-14T21:39:14.375Z,6.45
2022-10-14T21:41:42.988Z,6.65
2022-10-14T21:44:15.795Z,6.55
2022-10-14T21:46:44.324Z,6.67
2022-10-14T21:49:12.856Z,6.25
2022-10-14T21:51:41.474Z,6.65
2022-10-14T21:54:12.609Z,6.78
2022-10-14T21:56:41.046Z,6.55
2022-10-14T21:59:09.941Z,6.37
2022-10-14T22:01:38.370Z,6.20
2022-10-14T22:04:06.810Z,6.65
2022-10-14T22:06:38.150Z,6.45
2022-10-14T22:09:07.838Z,6.65
2022-10-14T22:11:41.655Z,6.47
2022-10-14T22:14:17.904Z,6.18
2022-10-14T22:16:47.481Z,6.18
2022-10-14T22:19:16.077Z,6.60
2022-10-14T22:21:47.133Z,6.28
2022-10-14T22:24:15.586Z,6.60
2022-10-14T22:26:43.587Z,6.40
2022-10-14T22:29:16.081Z,6.15
2022-10-14T22:31:44.584Z,6.18
2022-10-14T22:34:14.915Z,6.32
2022-10-14T22:36:43.467Z,6.00
2022-10-14T22:39:14.643Z,5.85
2022-10-14T22:41:42.722Z,6.75
2022-10-14T22:44:11.355Z,6.43
2022-10-14T22:46:40.677Z,6.30
2022-10-14T22:49:11.550Z,5.70
2022-10-14T22:51:40.947Z,5.80
2022-10-14T22:54:10.028Z,5.88
2022-10-14T22:56:39.225Z,6.32
2022-10-14T22:59:10.081Z,5.57
2022-10-14T23:01:39.377Z,6.07
2022-10-14T23:04:08.393Z,5.82
2022-10-14T23:06:36.982Z,5.72
2022-10-14T23:09:05.507Z,5.70
2022-10-14T23:11:33.353Z,5.88
2022-10-14T23:14:04.657Z,5.53
2022-10-14T23:16:36.140Z,5.90
2022-10-14T23:19:04.302Z,5.78
2022-10-14T23:21:35.156Z,5.28
2022-10-14T23:24:08.000Z,5.65
2022-10-14T23:26:37.232Z,5.53
2022-10-14T23:29:08.626Z,5.90
2022-10-14T23:31:38.664Z,5.40
2022-10-14T23:34:11.205Z,5.75
2022-10-14T23:36:40.235Z,5.40
2022-10-14T23:39:08.392Z,5.40
2022-10-14T23:41:37.020Z,5.47
2022-10-14T23:44:05.044Z,5.80
2022-10-14T23:46:33.083Z,5.78
2022-10-14T23:49:07.657Z,5.35
2022-10-14T23:51:43.435Z,5.87
2022-10-14T23:54:11.558Z,5.95
2022-10-14T23:56:40.279Z,5.60
2022-10-14T23:59:08.121Z,5.40
